Time;durP1;ratioP1;P1;durP2;ratioP2;P2;SDS_P1;SDS_P2;PMS_P1;PMS_P2;Temp;Humidity;BMP_temperature;BMP_pressure;BME280_temperature;BME280_humidity;BME280_pressure;Samples;Min_cycle;Max_cycle;Signal;HPM_P1;HPM_P2
2021/12/09 00:00:59;;;;;;;17.17;8.43;;;;;;;;;;5113397;28;20228;-75
2021/12/09 00:03:29;;;;;;;21.03;9.20;;;;;;;;;;5113788;28;20196;-75
2021/12/09 00:05:57;;;;;;;15.27;8.77;;;;;;;;;;5113063;27;20202;-75
2021/12/09 00:08:26;;;;;;;15.10;7.83;;;;;;;;;;5113205;28;20208;-75
2021/12/09 00:10:54;;;;;;;12.27;6.77;;;;;;;;;;5112357;28;20669;-75
2021/12/09 00:13:21;;;;;;;10.77;6.73;;;;;;;;;;5112780;28;20279;-75
2021/12/09 00:15:48;;;;;;;10.53;6.70;;;;;;;;;;5130017;27;20314;-75
2021/12/09 00:18:16;;;;;;;13.03;7.13;;;;;;;;;;5113564;28;20289;-75
2021/12/09 00:20:45;;;;;;;8.43;5.57;;;;;;;;;;5113351;28;20298;-76
2021/12/09 00:23:12;;;;;;;8.57;5.73;;;;;;;;;;5113141;28;20191;-75
2021/12/09 00:25:40;;;;;;;10.40;5.70;;;;;;;;;;5108383;28;20654;-75
2021/12/09 00:28:07;;;;;;;10.77;5.50;;;;;;;;;;5110877;27;20237;-75
2021/12/09 00:30:35;;;;;;;8.30;5.20;;;;;;;;;;5112825;28;20292;-75
2021/12/09 00:33:03;;;;;;;9.53;4.87;;;;;;;;;;5112471;28;20321;-75
2021/12/09 00:35:41;;;;;;;9.03;4.77;;;;;;;;;;5113248;28;20559;-75
2021/12/09 00:38:13;;;;;;;7.73;4.40;;;;;;;;;;5113144;28;20286;-75
2021/12/09 00:40:40;;;;;;;6.43;4.43;;;;;;;;;;5129541;27;20202;-75
2021/12/09 00:43:08;;;;;;;10.20;4.63;;;;;;;;;;5121875;27;20196;-75
2021/12/09 00:45:35;;;;;;;8.03;4.43;;;;;;;;;;5113248;28;20624;-75
2021/12/09 00:48:03;;;;;;;8.23;4.37;;;;;;;;;;5112268;27;20194;-75
2021/12/09 00:50:30;;;;;;;8.30;4.43;;;;;;;;;;5112957;28;20230;-75
2021/12/09 00:52:57;;;;;;;12.10;4.70;;;;;;;;;;5112862;28;20248;-75
2021/12/09 00:55:26;;;;;;;10.10;5.40;;;;;;;;;;5112468;27;20281;-74
2021/12/09 00:57:53;;;;;;;7.87;5.10;;;;;;;;;;5122349;27;20282;-74
2021/12/09 01:00:21;;;;;;;10.30;5.30;;;;;;;;;;5112498;28;20297;-75
2021/12/09 01:02:49;;;;;;;10.57;5.27;;;;;;;;;;5117406;27;20228;-75
2021/12/09 01:05:16;;;;;;;10.40;5.53;;;;;;;;;;5111612;27;20287;-75
2021/12/09 01:07:44;;;;;;;11.33;6.13;;;;;;;;;;5110288;28;20285;-75
2021/12/09 01:10:13;;;;;;;12.83;6.00;;;;;;;;;;5112446;28;20280;-75
2021/12/09 01:12:41;;;;;;;13.70;6.40;;;;;;;;;;5116573;27;20745;-74
2021/12/09 01:15:10;;;;;;;11.70;6.70;;;;;;;;;;5112230;28;20215;-74
2021/12/09 01:17:37;;;;;;;12.17;6.80;;;;;;;;;;5112032;27;20321;-74
2021/12/09 01:20:05;;;;;;;8.43;5.57;;;;;;;;;;5112566;28;20622;-74
2021/12/09 01:22:38;;;;;;;8.37;4.80;;;;;;;;;;5115698;27;20664;-75
2021/12/09 01:25:05;;;;;;;9.03;5.30;;;;;;;;;;5117096;27;20657;-75
2021/12/09 01:27:35;;;;;;;12.67;5.33;;;;;;;;;;5110997;28;20237;-75
2021/12/09 01:30:09;;;;;;;9.93;5.33;;;;;;;;;;5111915;28;20220;-74
2021/12/09 01:32:36;;;;;;;9.27;4.67;;;;;;;;;;5111225;28;20245;-73
2021/12/09 01:35:03;;;;;;;7.87;4.50;;;;;;;;;;5111912;28;20270;-74
2021/12/09 01:37:31;;;;;;;7.40;4.37;;;;;;;;;;5111597;28;20237;-76
2021/12/09 01:39:58;;;;;;;8.97;4.50;;;;;;;;;;5111688;28;20195;-75
2021/12/09 01:42:25;;;;;;;8.17;4.60;;;;;;;;;;5111999;28;20244;-75
2021/12/09 01:44:52;;;;;;;7.47;4.80;;;;;;;;;;5112200;27;20300;-75
2021/12/09 01:47:21;;;;;;;9.33;5.10;;;;;;;;;;5114249;27;20288;-75
2021/12/09 01:49:49;;;;;;;7.90;4.63;;;;;;;;;;5111709;27;20194;-73
2021/12/09 01:52:16;;;;;;;9.93;5.10;;;;;;;;;;5112067;28;20287;-75
2021/12/09 01:54:43;;;;;;;9.63;5.10;;;;;;;;;;5113738;27;20304;-75
2021/12/09 01:57:10;;;;;;;12.10;5.60;;;;;;;;;;5124885;27;20247;-74
2021/12/09 01:59:37;;;;;;;7.17;5.13;;;;;;;;;;5114003;28;20281;-75
2021/12/09 02:02:05;;;;;;;7.93;5.53;;;;;;;;;;5111615;28;20192;-75
2021/12/09 02:04:33;;;;;;;11.17;6.53;;;;;;;;;;5112185;28;20236;-75
2021/12/09 02:07:01;;;;;;;10.87;6.83;;;;;;;;;;5111582;28;20233;-75
2021/12/09 02:09:28;;;;;;;11.00;5.70;;;;;;;;;;5114360;28;20225;-75
2021/12/09 02:11:55;;;;;;;9.63;5.60;;;;;;;;;;5111197;28;20284;-75
2021/12/09 02:14:22;;;;;;;7.63;4.67;;;;;;;;;;5118441;28;20311;-75
2021/12/09 02:16:50;;;;;;;8.17;4.83;;;;;;;;;;5110850;28;20327;-76
2021/12/09 02:19:17;;;;;;;10.53;4.50;;;;;;;;;;5110862;28;20229;-75
2021/12/09 02:21:46;;;;;;;9.37;4.57;;;;;;;;;;5111149;28;20289;-75
2021/12/09 02:24:16;;;;;;;10.57;4.47;;;;;;;;;;5110704;28;20199;-75
2021/12/09 02:26:44;;;;;;;7.77;4.23;;;;;;;;;;5111426;28;20198;-75
2021/12/09 02:29:12;;;;;;;7.37;4.70;;;;;;;;;;5111142;28;20240;-75
2021/12/09 02:31:39;;;;;;;8.90;4.47;;;;;;;;;;5105841;28;20285;-76
2021/12/09 02:34:07;;;;;;;8.33;4.27;;;;;;;;;;5105519;28;20308;-75
2021/12/09 02:36:37;;;;;;;9.17;3.97;;;;;;;;;;5111196;28;20233;-76
2021/12/09 02:39:07;;;;;;;7.60;4.40;;;;;;;;;;5109052;28;20202;-76
2021/12/09 02:41:35;;;;;;;9.70;4.17;;;;;;;;;;5111299;28;20288;-75
2021/12/09 02:44:04;;;;;;;6.37;4.30;;;;;;;;;;5119169;28;20574;-76
2021/12/09 02:46:35;;;;;;;16.83;4.50;;;;;;;;;;5113377;28;20198;-76
2021/12/09 02:49:02;;;;;;;10.17;4.30;;;;;;;;;;5111167;28;20238;-76
2021/12/09 02:51:29;;;;;;;8.60;4.00;;;;;;;;;;5111071;28;20282;-75
2021/12/09 02:53:57;;;;;;;9.60;4.33;;;;;;;;;;5110975;28;20305;-75
2021/12/09 02:56:25;;;;;;;10.07;4.60;;;;;;;;;;5119378;28;20199;-75
2021/12/09 02:58:52;;;;;;;8.70;4.43;;;;;;;;;;5111362;28;20387;-75
2021/12/09 03:01:21;;;;;;;9.03;4.37;;;;;;;;;;5110316;28;20617;-75
2021/12/09 03:03:51;;;;;;;6.83;4.30;;;;;;;;;;5111181;28;20227;-75
2021/12/09 03:06:18;;;;;;;10.20;4.50;;;;;;;;;;5110624;28;20208;-75
2021/12/09 03:08:46;;;;;;;7.90;3.97;;;;;;;;;;5111270;28;20250;-75
2021/12/09 03:11:14;;;;;;;9.57;4.10;;;;;;;;;;5112172;28;20237;-75
2021/12/09 03:13:43;;;;;;;7.47;3.33;;;;;;;;;;5104778;28;20572;-75
2021/12/09 03:16:11;;;;;;;7.87;3.40;;;;;;;;;;5110878;28;20257;-75
2021/12/09 03:18:42;;;;;;;6.00;3.20;;;;;;;;;;5113218;28;20229;-75
2021/12/09 03:21:17;;;;;;;6.53;3.03;;;;;;;;;;5114360;28;20298;-75
2021/12/09 03:23:44;;;;;;;5.77;2.77;;;;;;;;;;5114693;28;20311;-75
2021/12/09 03:26:11;;;;;;;9.47;3.23;;;;;;;;;;5114716;28;20229;-75
2021/12/09 03:28:39;;;;;;;7.73;3.30;;;;;;;;;;5114100;28;20245;-75
2021/12/09 03:31:07;;;;;;;7.47;3.43;;;;;;;;;;5114461;28;20280;-75
2021/12/09 03:33:35;;;;;;;8.43;3.33;;;;;;;;;;5112337;28;20316;-75
2021/12/09 03:36:03;;;;;;;7.37;3.87;;;;;;;;;;5114017;28;20291;-75
2021/12/09 03:38:34;;;;;;;14.53;6.27;;;;;;;;;;5113843;28;20288;-75
2021/12/09 03:41:01;;;;;;;17.10;7.10;;;;;;;;;;5114809;28;20253;-75
2021/12/09 03:43:28;;;;;;;12.83;5.53;;;;;;;;;;5114376;28;20725;-75
2021/12/09 03:45:56;;;;;;;7.90;4.47;;;;;;;;;;5114250;28;20624;-75
2021/12/09 03:48:25;;;;;;;8.60;3.67;;;;;;;;;;5114823;28;20208;-75
2021/12/09 03:50:53;;;;;;;12.77;3.33;;;;;;;;;;5113652;28;20229;-75
2021/12/09 03:53:20;;;;;;;8.60;3.53;;;;;;;;;;5100823;28;20304;-75
2021/12/09 03:55:48;;;;;;;10.70;3.47;;;;;;;;;;5114124;28;20281;-75
2021/12/09 03:58:15;;;;;;;8.47;3.13;;;;;;;;;;5113897;28;20317;-75
2021/12/09 04:00:42;;;;;;;8.03;2.63;;;;;;;;;;5113567;28;20315;-75
2021/12/09 04:03:10;;;;;;;10.13;3.50;;;;;;;;;;5114127;27;20282;-75
2021/12/09 04:05:39;;;;;;;9.73;3.13;;;;;;;;;;5124995;27;20233;-75
2021/12/09 04:08:07;;;;;;;9.00;3.67;;;;;;;;;;5130428;27;20209;-75
2021/12/09 04:10:34;;;;;;;8.77;3.10;;;;;;;;;;5117613;27;20665;-75
2021/12/09 04:13:02;;;;;;;10.23;3.00;;;;;;;;;;5112808;28;20587;-75
2021/12/09 04:15:29;;;;;;;7.17;3.03;;;;;;;;;;5113319;28;20709;-75
2021/12/09 04:17:56;;;;;;;8.53;3.07;;;;;;;;;;5113643;28;20204;-75
2021/12/09 04:20:24;;;;;;;8.17;2.97;;;;;;;;;;5113445;28;20607;-75
2021/12/09 04:22:52;;;;;;;9.10;2.60;;;;;;;;;;5112881;28;20282;-75
2021/12/09 04:25:21;;;;;;;9.20;3.07;;;;;;;;;;5113330;27;20293;-75
2021/12/09 04:27:50;;;;;;;10.63;3.20;;;;;;;;;;5113301;28;20198;-75
2021/12/09 04:30:17;;;;;;;9.87;3.17;;;;;;;;;;5112085;28;20204;-75
2021/12/09 04:32:45;;;;;;;10.73;3.83;;;;;;;;;;5113504;28;20224;-75
2021/12/09 04:35:13;;;;;;;6.27;3.07;;;;;;;;;;5112622;28;20654;-75
2021/12/09 04:37:42;;;;;;;7.07;3.47;;;;;;;;;;5113615;28;20237;-75
2021/12/09 04:40:12;;;;;;;9.40;3.30;;;;;;;;;;5112482;27;20198;-74
2021/12/09 04:42:39;;;;;;;10.30;3.20;;;;;;;;;;5113063;28;20285;-75
2021/12/09 04:45:07;;;;;;;6.93;3.30;;;;;;;;;;5113201;28;20232;-75
2021/12/09 04:47:34;;;;;;;9.03;3.00;;;;;;;;;;5118822;27;20206;-75
2021/12/09 04:50:02;;;;;;;14.47;3.40;;;;;;;;;;5115976;27;20351;-75
2021/12/09 04:52:29;;;;;;;5.70;2.57;;;;;;;;;;5096339;28;20230;-75
2021/12/09 04:54:56;;;;;;;9.37;2.93;;;;;;;;;;5113155;28;20309;-75
2021/12/09 04:57:25;;;;;;;5.37;2.90;;;;;;;;;;5112555;28;20309;-75
2021/12/09 04:59:52;;;;;;;11.23;3.30;;;;;;;;;;5112657;28;20699;-75
2021/12/09 05:02:27;;;;;;;9.40;2.90;;;;;;;;;;5112656;28;20204;-75
2021/12/09 05:04:54;;;;;;;9.43;3.13;;;;;;;;;;5112914;28;20201;-75
2021/12/09 05:07:22;;;;;;;6.77;2.77;;;;;;;;;;5111932;28;20289;-75
2021/12/09 05:09:51;;;;;;;10.17;3.27;;;;;;;;;;5112396;28;20300;-75
2021/12/09 05:12:19;;;;;;;9.97;3.50;;;;;;;;;;5112059;28;20235;-75
2021/12/09 05:14:48;;;;;;;5.67;3.20;;;;;;;;;;5111933;28;20224;-75
2021/12/09 05:17:16;;;;;;;6.93;2.90;;;;;;;;;;5111667;28;20221;-75
2021/12/09 05:19:44;;;;;;;10.97;4.13;;;;;;;;;;5112228;28;20265;-75
2021/12/09 05:22:12;;;;;;;17.27;5.37;;;;;;;;;;5112403;28;20290;-75
2021/12/09 05:24:40;;;;;;;11.83;3.77;;;;;;;;;;5111895;28;20321;-75
2021/12/09 05:27:09;;;;;;;11.67;3.87;;;;;;;;;;5111876;28;20196;-75
2021/12/09 05:29:39;;;;;;;10.80;3.77;;;;;;;;;;5108169;28;20563;-75
2021/12/09 05:32:10;;;;;;;10.10;4.40;;;;;;;;;;5111762;28;20194;-75
2021/12/09 05:34:38;;;;;;;13.83;5.87;;;;;;;;;;5111562;28;20634;-75
2021/12/09 05:37:06;;;;;;;9.00;5.20;;;;;;;;;;5112573;28;20233;-75
2021/12/09 05:39:33;;;;;;;8.43;4.80;;;;;;;;;;5110862;28;20204;-76
2021/12/09 05:42:00;;;;;;;12.23;4.37;;;;;;;;;;5110660;27;20285;-75
2021/12/09 05:44:28;;;;;;;9.67;4.07;;;;;;;;;;5111808;28;20244;-75
2021/12/09 05:46:55;;;;;;;12.37;4.07;;;;;;;;;;5111312;28;20649;-75
2021/12/09 05:49:24;;;;;;;10.20;4.53;;;;;;;;;;5111453;28;20593;-75
2021/12/09 05:51:53;;;;;;;8.30;4.07;;;;;;;;;;5111667;28;20545;-75
2021/12/09 05:54:20;;;;;;;14.07;4.50;;;;;;;;;;5112081;28;20266;-75
2021/12/09 05:56:47;;;;;;;9.33;3.97;;;;;;;;;;5110914;28;20663;-75
2021/12/09 05:59:15;;;;;;;10.33;4.03;;;;;;;;;;5111401;28;20233;-75
2021/12/09 06:01:42;;;;;;;10.70;3.40;;;;;;;;;;5111141;28;20609;-75
2021/12/09 06:04:11;;;;;;;12.30;3.90;;;;;;;;;;5109892;28;20285;-75
2021/12/09 06:06:40;;;;;;;15.30;8.13;;;;;;;;;;5114685;27;20212;-75
2021/12/09 06:09:08;;;;;;;18.90;7.90;;;;;;;;;;5110732;28;20280;-76
2021/12/09 06:11:35;;;;;;;15.47;6.03;;;;;;;;;;5111976;28;20280;-76
2021/12/09 06:14:03;;;;;;;13.27;4.67;;;;;;;;;;5111423;28;20341;-75
2021/12/09 06:16:31;;;;;;;11.77;3.90;;;;;;;;;;5111890;28;20261;-76
2021/12/09 06:18:58;;;;;;;13.73;4.27;;;;;;;;;;5112041;28;20280;-76
2021/12/09 06:21:27;;;;;;;10.83;3.93;;;;;;;;;;5111559;28;20273;-76
2021/12/09 06:23:56;;;;;;;10.57;4.20;;;;;;;;;;5111948;28;20263;-76
2021/12/09 06:26:23;;;;;;;11.13;4.23;;;;;;;;;;5111274;28;20631;-76
2021/12/09 06:28:51;;;;;;;6.80;4.07;;;;;;;;;;5111500;28;20293;-76
2021/12/09 06:31:19;;;;;;;10.13;3.73;;;;;;;;;;5111293;28;20194;-75
2021/12/09 06:33:46;;;;;;;13.37;4.57;;;;;;;;;;5111582;28;20228;-76
2021/12/09 06:36:14;;;;;;;13.97;4.40;;;;;;;;;;5110284;28;20229;-76
2021/12/09 06:38:41;;;;;;;14.57;8.07;;;;;;;;;;5110328;28;20216;-75
2021/12/09 06:41:09;;;;;;;11.37;6.87;;;;;;;;;;5109821;28;20286;-74
2021/12/09 06:43:37;;;;;;;11.13;5.67;;;;;;;;;;5104589;28;20312;-74
2021/12/09 06:46:05;;;;;;;9.03;5.13;;;;;;;;;;5106036;28;20247;-74
2021/12/09 06:48:33;;;;;;;11.03;5.53;;;;;;;;;;5107495;28;20296;-75
2021/12/09 06:51:01;;;;;;;15.63;6.27;;;;;;;;;;5110972;28;20211;-74
2021/12/09 06:53:28;;;;;;;13.93;6.53;;;;;;;;;;5112237;28;20198;-75
2021/12/09 06:55:56;;;;;;;14.27;6.47;;;;;;;;;;5115438;28;20236;-75
2021/12/09 06:58:25;;;;;;;19.93;7.33;;;;;;;;;;5115186;28;20288;-75
2021/12/09 07:00:54;;;;;;;15.70;7.57;;;;;;;;;;5117434;27;20284;-75
2021/12/09 07:03:21;;;;;;;20.27;7.53;;;;;;;;;;5115100;27;20194;-74
2021/12/09 07:05:49;;;;;;;13.20;7.67;;;;;;;;;;5112341;27;20194;-75
2021/12/09 07:08:16;;;;;;;13.73;6.80;;;;;;;;;;5111381;28;20288;-74
2021/12/09 07:10:44;;;;;;;16.40;6.53;;;;;;;;;;5111923;28;20285;-74
2021/12/09 07:13:12;;;;;;;15.60;6.47;;;;;;;;;;5113444;28;20232;-75
2021/12/09 07:15:40;;;;;;;14.13;5.80;;;;;;;;;;5112518;28;20261;-74
2021/12/09 07:18:07;;;;;;;11.87;5.60;;;;;;;;;;5113178;27;20289;-75
2021/12/09 07:20:35;;;;;;;13.27;6.70;;;;;;;;;;5116354;27;20221;-75
2021/12/09 07:23:02;;;;;;;19.40;7.20;;;;;;;;;;5113214;28;20293;-75
2021/12/09 07:25:31;;;;;;;14.87;6.03;;;;;;;;;;5113607;28;20281;-75
2021/12/09 07:27:58;;;;;;;14.73;6.40;;;;;;;;;;5112602;28;20287;-75
2021/12/09 07:30:27;;;;;;;17.13;6.60;;;;;;;;;;5107336;28;20634;-75
2021/12/09 07:32:55;;;;;;;16.27;7.40;;;;;;;;;;5108486;27;20284;-75
2021/12/09 07:35:26;;;;;;;20.77;9.13;;;;;;;;;;5113760;27;20304;-75
2021/12/09 07:37:53;;;;;;;19.97;9.30;;;;;;;;;;5113914;27;20194;-75
2021/12/09 07:40:21;;;;;;;16.53;7.50;;;;;;;;;;5113731;28;20209;-75
2021/12/09 07:42:48;;;;;;;18.40;8.43;;;;;;;;;;5112567;28;20286;-73
2021/12/09 07:45:16;;;;;;;17.30;7.87;;;;;;;;;;5112792;27;20273;-74
2021/12/09 07:47:44;;;;;;;16.93;6.40;;;;;;;;;;5105434;28;20194;-74
2021/12/09 07:50:14;;;;;;;14.50;5.83;;;;;;;;;;5120369;27;20197;-73
2021/12/09 07:52:42;;;;;;;12.90;6.43;;;;;;;;;;5115881;27;20273;-73
2021/12/09 07:55:10;;;;;;;183.20;117.00;;;;;;;;;;5112980;28;20217;-74
2021/12/09 07:57:37;;;;;;;67.47;43.50;;;;;;;;;;5113836;27;20684;-73
2021/12/09 08:00:06;;;;;;;47.87;31.77;;;;;;;;;;5112687;28;20229;-74
2021/12/09 08:02:34;;;;;;;30.80;19.33;;;;;;;;;;5112820;28;20255;-74
2021/12/09 08:05:01;;;;;;;20.30;13.43;;;;;;;;;;5112209;28;20626;-74
2021/12/09 08:07:30;;;;;;;19.73;9.90;;;;;;;;;;5104845;28;20303;-73
2021/12/09 08:09:57;;;;;;;18.50;9.40;;;;;;;;;;5112545;28;20282;-73
2021/12/09 08:12:24;;;;;;;13.13;6.73;;;;;;;;;;5109609;28;20293;-74
2021/12/09 08:14:52;;;;;;;13.97;7.43;;;;;;;;;;5111790;28;20220;-74
2021/12/09 08:17:44;;;;;;;16.73;9.07;;;;;;;;;;5111902;27;20314;-74
2021/12/09 08:20:13;;;;;;;27.87;14.20;;;;;;;;;;5108405;28;20255;-73
2021/12/09 08:22:42;;;;;;;28.20;15.00;;;;;;;;;;5110143;28;20224;-74
2021/12/09 08:25:12;;;;;;;22.73;11.97;;;;;;;;;;5111559;28;20282;-74
2021/12/09 08:27:39;;;;;;;21.63;10.17;;;;;;;;;;5111842;28;20205;-74
2021/12/09 08:30:08;;;;;;;14.63;8.17;;;;;;;;;;5110406;28;20297;-75
2021/12/09 08:32:35;;;;;;;14.00;8.20;;;;;;;;;;5112076;28;20730;-74
2021/12/09 08:35:02;;;;;;;13.90;6.90;;;;;;;;;;5111599;28;20254;-73
2021/12/09 08:37:30;;;;;;;13.83;6.80;;;;;;;;;;5111892;28;20243;-73
2021/12/09 08:39:58;;;;;;;13.33;6.70;;;;;;;;;;5111274;27;20203;-73
2021/12/09 08:42:26;;;;;;;14.20;7.07;;;;;;;;;;5111682;28;20294;-74
2021/12/09 08:44:53;;;;;;;15.13;6.33;;;;;;;;;;5111217;28;20626;-74
2021/12/09 08:47:21;;;;;;;17.70;6.70;;;;;;;;;;5112450;28;20195;-73
2021/12/09 08:49:48;;;;;;;14.47;6.50;;;;;;;;;;5109397;28;20235;-74
2021/12/09 08:52:16;;;;;;;16.83;6.83;;;;;;;;;;5111742;28;20285;-74
2021/12/09 08:54:43;;;;;;;14.47;6.70;;;;;;;;;;5111772;28;20850;-73
2021/12/09 08:57:12;;;;;;;15.70;6.90;;;;;;;;;;5111678;28;20712;-74
2021/12/09 08:59:39;;;;;;;17.17;7.37;;;;;;;;;;5111800;28;20721;-73
2021/12/09 09:02:06;;;;;;;19.37;7.87;;;;;;;;;;5110939;28;20295;-74
2021/12/09 09:04:34;;;;;;;15.90;6.83;;;;;;;;;;5113871;27;20400;-73
2021/12/09 09:07:02;;;;;;;15.30;6.27;;;;;;;;;;5111367;28;20235;-74
2021/12/09 09:09:33;;;;;;;12.53;6.07;;;;;;;;;;5111405;28;20196;-74
2021/12/09 09:12:01;;;;;;;14.57;5.80;;;;;;;;;;5111704;28;20615;-74
2021/12/09 09:14:29;;;;;;;14.43;6.40;;;;;;;;;;5111316;28;20666;-73
2021/12/09 09:16:57;;;;;;;13.10;6.50;;;;;;;;;;5110715;28;20754;-74
2021/12/09 09:19:25;;;;;;;16.80;6.80;;;;;;;;;;5110912;28;20237;-75
2021/12/09 09:21:52;;;;;;;14.20;5.87;;;;;;;;;;5117459;27;20281;-76
2021/12/09 09:24:19;;;;;;;14.83;6.43;;;;;;;;;;5110580;28;20281;-74
2021/12/09 09:26:47;;;;;;;13.90;5.27;;;;;;;;;;5112779;27;20222;-74
2021/12/09 09:29:14;;;;;;;12.57;5.20;;;;;;;;;;5108015;28;20690;-74
2021/12/09 09:31:43;;;;;;;12.43;4.53;;;;;;;;;;5110693;28;20294;-73
2021/12/09 09:34:11;;;;;;;11.00;4.50;;;;;;;;;;5111466;28;20722;-73
2021/12/09 09:36:44;;;;;;;14.13;4.80;;;;;;;;;;5110774;28;20781;-74
2021/12/09 09:39:18;;;;;;;18.20;6.03;;;;;;;;;;5110760;28;20193;-73
2021/12/09 09:41:48;;;;;;;13.00;5.47;;;;;;;;;;5111066;28;20255;-74
2021/12/09 09:44:17;;;;;;;11.67;5.53;;;;;;;;;;5111496;28;20201;-73
2021/12/09 09:46:45;;;;;;;16.17;6.40;;;;;;;;;;5111393;28;20194;-72
2021/12/09 09:49:13;;;;;;;14.63;5.53;;;;;;;;;;5111023;28;20201;-73
2021/12/09 09:51:40;;;;;;;13.67;5.47;;;;;;;;;;5108489;28;20202;-74
2021/12/09 09:54:08;;;;;;;7.90;3.70;;;;;;;;;;5111429;27;20296;-74
2021/12/09 09:56:40;;;;;;;12.73;3.93;;;;;;;;;;5110525;28;20217;-74
2021/12/09 09:59:08;;;;;;;13.33;4.80;;;;;;;;;;5110947;28;20876;-74
2021/12/09 10:01:37;;;;;;;11.63;4.40;;;;;;;;;;5110967;28;20296;-74
2021/12/09 10:04:20;;;;;;;12.23;4.67;;;;;;;;;;5108432;28;20320;-74
2021/12/09 10:06:47;;;;;;;12.90;5.30;;;;;;;;;;5110293;28;20229;-74
2021/12/09 10:09:15;;;;;;;12.47;3.93;;;;;;;;;;5118106;27;20198;-74
2021/12/09 10:11:43;;;;;;;11.20;3.80;;;;;;;;;;5111190;28;20289;-72
2021/12/09 10:14:12;;;;;;;11.13;4.40;;;;;;;;;;5113945;28;20312;-74
2021/12/09 10:16:41;;;;;;;10.30;4.13;;;;;;;;;;5110316;28;20320;-74
2021/12/09 10:19:16;;;;;;;14.50;5.10;;;;;;;;;;5111143;28;20284;-74
2021/12/09 10:21:44;;;;;;;13.63;4.90;;;;;;;;;;5110441;28;20637;-74
2021/12/09 10:24:11;;;;;;;12.43;5.57;;;;;;;;;;5111841;28;20198;-73
2021/12/09 10:26:40;;;;;;;14.13;5.03;;;;;;;;;;5109140;28;20280;-74
2021/12/09 10:29:13;;;;;;;14.00;5.00;;;;;;;;;;5111742;27;20205;-74
2021/12/09 10:31:43;;;;;;;13.47;4.43;;;;;;;;;;5110316;27;20672;-74
2021/12/09 10:34:20;;;;;;;13.47;4.77;;;;;;;;;;5111487;27;20197;-74
2021/12/09 10:36:50;;;;;;;8.43;3.70;;;;;;;;;;5115643;27;20595;-74
2021/12/09 10:39:22;;;;;;;10.63;4.27;;;;;;;;;;5116378;27;20288;-74
2021/12/09 10:41:50;;;;;;;11.90;4.40;;;;;;;;;;5111491;28;20248;-74
2021/12/09 10:44:20;;;;;;;11.60;4.60;;;;;;;;;;5114405;27;20209;-74
2021/12/09 10:46:52;;;;;;;10.50;4.00;;;;;;;;;;5115996;27;20473;-74
2021/12/09 10:49:22;;;;;;;8.87;3.60;;;;;;;;;;5114131;27;20201;-74
2021/12/09 10:52:00;;;;;;;13.30;3.93;;;;;;;;;;5109445;27;20551;-73
2021/12/09 10:54:32;;;;;;;17.77;4.10;;;;;;;;;;5112529;27;20202;-74
2021/12/09 10:57:20;;;;;;;13.00;3.80;;;;;;;;;;5106437;28;20670;-73
2021/12/09 10:59:48;;;;;;;9.43;3.73;;;;;;;;;;5110683;27;20206;-74
2021/12/09 11:02:15;;;;;;;11.20;3.70;;;;;;;;;;5112211;27;20293;-73
2021/12/09 11:04:57;;;;;;;13.13;3.63;;;;;;;;;;5113952;27;20198;-74
2021/12/09 11:07:29;;;;;;;8.87;3.37;;;;;;;;;;5114571;27;20284;-74
2021/12/09 11:10:11;;;;;;;8.47;3.13;;;;;;;;;;5113986;27;20622;-72
2021/12/09 11:12:38;;;;;;;11.93;3.50;;;;;;;;;;5113220;27;20613;-71
2021/12/09 11:15:05;;;;;;;7.97;3.00;;;;;;;;;;5107622;28;20222;-72
2021/12/09 11:17:38;;;;;;;14.97;3.60;;;;;;;;;;5113113;27;20941;-74
2021/12/09 11:20:07;;;;;;;14.70;4.37;;;;;;;;;;5112003;28;20195;-74
2021/12/09 11:22:37;;;;;;;12.97;4.93;;;;;;;;;;5125326;27;20237;-74
2021/12/09 11:25:07;;;;;;;14.57;5.10;;;;;;;;;;5113739;27;20204;-74
2021/12/09 11:27:34;;;;;;;12.77;5.40;;;;;;;;;;5113206;28;20218;-74
2021/12/09 11:30:09;;;;;;;16.20;5.60;;;;;;;;;;5106883;28;20207;-74
2021/12/09 11:32:42;;;;;;;15.87;5.70;;;;;;;;;;5111858;27;20210;-74
2021/12/09 11:35:15;;;;;;;16.33;5.57;;;;;;;;;;5112552;27;20246;-74
2021/12/09 11:37:47;;;;;;;14.07;5.33;;;;;;;;;;5113870;27;20231;-74
2021/12/09 11:40:21;;;;;;;13.70;5.60;;;;;;;;;;5110132;27;20207;-74
2021/12/09 11:42:55;;;;;;;9.47;4.80;;;;;;;;;;5113737;28;20671;-74
2021/12/09 11:45:24;;;;;;;11.70;5.07;;;;;;;;;;5113292;27;20189;-76
2021/12/09 11:47:53;;;;;;;13.77;4.93;;;;;;;;;;5116549;27;20193;-76
2021/12/09 11:50:23;;;;;;;9.57;4.00;;;;;;;;;;5112676;28;20285;-76
2021/12/09 11:52:52;;;;;;;9.03;3.40;;;;;;;;;;5109396;27;20277;-76
2021/12/09 11:55:23;;;;;;;9.30;2.77;;;;;;;;;;5113055;28;20213;-76
2021/12/09 11:57:55;;;;;;;9.23;3.00;;;;;;;;;;5114616;27;20235;-76
2021/12/09 12:11:54;;;;;;;11.47;3.40;;;;;;;;;;5029794;28;20208;-76
2021/12/09 12:14:40;;;;;;;10.53;3.50;;;;;;;;;;5030161;28;20273;-76
2021/12/09 12:17:22;;;;;;;11.70;3.37;;;;;;;;;;5025706;28;20226;-75
2021/12/09 12:20:09;;;;;;;10.70;3.00;;;;;;;;;;5028191;28;20209;-76
2021/12/09 12:23:02;;;;;;;8.83;3.20;;;;;;;;;;5029071;28;20196;-76
2021/12/09 12:26:14;;;;;;;9.97;3.47;;;;;;;;;;5030670;28;20192;-76
2021/12/09 12:34:56;;;;;;;8.70;4.00;;;;;;;;;;5019288;28;20293;-73
2021/12/09 12:37:44;;;;;;;6.67;2.90;;;;;;;;;;5028901;28;20311;-74
2021/12/09 12:40:14;;;;;;;8.93;3.70;;;;;;;;;;5029219;28;20211;-73
2021/12/09 12:42:52;;;;;;;8.00;3.70;;;;;;;;;;5034660;28;20295;-73
2021/12/09 12:45:34;;;;;;;12.10;3.83;;;;;;;;;;5028112;28;20212;-73
2021/12/09 12:48:12;;;;;;;10.93;3.87;;;;;;;;;;5029849;28;20551;-73
2021/12/09 12:50:39;;;;;;;9.83;3.90;;;;;;;;;;5109823;27;20681;-73
2021/12/09 12:53:22;;;;;;;13.30;4.33;;;;;;;;;;5112723;27;20230;-73
2021/12/09 12:56:10;;;;;;;10.60;4.03;;;;;;;;;;5109965;27;20260;-73
2021/12/09 12:58:37;;;;;;;13.27;4.23;;;;;;;;;;5111166;28;20218;-73
2021/12/09 13:01:15;;;;;;;13.57;4.30;;;;;;;;;;5114462;27;20216;-73
2021/12/09 13:03:48;;;;;;;9.93;4.00;;;;;;;;;;5110777;27;20247;-74
2021/12/09 13:06:40;;;;;;;10.80;4.27;;;;;;;;;;5111497;28;20194;-73
2021/12/09 13:09:24;;;;;;;11.83;3.97;;;;;;;;;;5111191;28;20237;-73
2021/12/09 13:11:58;;;;;;;14.73;4.60;;;;;;;;;;5112024;27;20254;-73
2021/12/09 13:14:29;;;;;;;13.17;5.40;;;;;;;;;;5111196;28;20222;-73
2021/12/09 13:17:06;;;;;;;15.53;4.83;;;;;;;;;;5111518;27;20222;-73
2021/12/09 13:19:42;;;;;;;10.60;4.20;;;;;;;;;;5108560;28;20202;-73
2021/12/09 13:22:20;;;;;;;7.87;3.50;;;;;;;;;;5111485;28;20304;-73
2021/12/09 13:24:52;;;;;;;8.03;2.80;;;;;;;;;;5111536;28;20246;-73
2021/12/09 13:33:22;;;;;;;7.90;2.67;;;;;;;;;;5015003;28;20489;-73
2021/12/09 13:36:13;;;;;;;12.97;3.47;;;;;;;;;;5023406;28;20254;-73
2021/12/09 13:47:11;;;;;;;13.43;3.87;;;;;;;;;;5019941;28;20295;-73
2021/12/09 13:49:47;;;;;;;11.33;3.90;;;;;;;;;;5018422;28;20205;-73
2021/12/09 13:55:02;;;;;;;9.57;2.30;;;;;;;;;;5021017;28;20323;-73
2021/12/09 13:57:31;;;;;;;7.77;2.97;;;;;;;;;;5021989;28;20304;-73
2021/12/09 14:00:00;;;;;;;8.23;2.57;;;;;;;;;;5023235;28;20291;-74
2021/12/09 14:02:30;;;;;;;8.83;3.17;;;;;;;;;;5011224;28;20200;-73
2021/12/09 14:04:59;;;;;;;10.93;3.10;;;;;;;;;;5021269;28;20196;-73
2021/12/09 14:07:28;;;;;;;5.13;2.63;;;;;;;;;;5020168;28;20201;-73
2021/12/09 14:09:59;;;;;;;8.70;2.80;;;;;;;;;;5059140;27;20196;-73
2021/12/09 14:12:30;;;;;;;9.40;3.30;;;;;;;;;;5110389;28;20197;-73
2021/12/09 14:15:05;;;;;;;8.07;3.00;;;;;;;;;;5107875;28;20239;-73
2021/12/09 14:17:36;;;;;;;9.57;3.23;;;;;;;;;;5109377;27;20228;-73
2021/12/09 14:20:06;;;;;;;5.90;2.67;;;;;;;;;;5108379;27;20569;-73
2021/12/09 14:22:34;;;;;;;7.27;3.40;;;;;;;;;;5109799;28;20209;-73
2021/12/09 14:25:04;;;;;;;7.63;3.83;;;;;;;;;;5112728;28;20234;-73
2021/12/09 14:27:32;;;;;;;8.03;4.30;;;;;;;;;;5108812;28;20206;-74
2021/12/09 14:30:00;;;;;;;12.10;5.13;;;;;;;;;;5105884;28;20378;-73
2021/12/09 14:32:28;;;;;;;14.80;5.97;;;;;;;;;;5107353;28;20209;-73
2021/12/09 14:34:58;;;;;;;13.37;6.57;;;;;;;;;;5113989;28;20294;-73
2021/12/09 14:37:26;;;;;;;10.83;6.13;;;;;;;;;;5105489;28;20222;-73
2021/12/09 14:40:02;;;;;;;10.70;6.03;;;;;;;;;;5113811;28;20300;-73
2021/12/09 14:42:31;;;;;;;12.47;6.27;;;;;;;;;;5109517;28;20212;-73
2021/12/09 14:45:00;;;;;;;10.57;6.13;;;;;;;;;;5109263;28;20214;-73
2021/12/09 14:47:27;;;;;;;10.40;6.43;;;;;;;;;;5114912;28;20202;-73
2021/12/09 14:49:56;;;;;;;10.47;6.20;;;;;;;;;;5109182;28;20285;-73
2021/12/09 14:52:28;;;;;;;13.23;7.47;;;;;;;;;;5110255;28;20281;-73
2021/12/09 14:55:10;;;;;;;8.30;6.33;;;;;;;;;;5110563;28;20760;-73
2021/12/09 14:57:52;;;;;;;14.07;6.77;;;;;;;;;;5110036;28;20677;-73
2021/12/09 15:00:29;;;;;;;10.70;7.03;;;;;;;;;;5105224;28;20202;-72
2021/12/09 15:02:56;;;;;;;10.17;7.70;;;;;;;;;;5108494;28;20221;-73
2021/12/09 15:05:23;;;;;;;12.73;7.30;;;;;;;;;;5109351;28;20276;-72
2021/12/09 15:08:02;;;;;;;13.53;7.87;;;;;;;;;;5109482;28;20604;-73
2021/12/09 15:10:32;;;;;;;11.37;8.50;;;;;;;;;;5114500;27;20749;-73
2021/12/09 15:13:00;;;;;;;13.70;8.80;;;;;;;;;;5109112;28;20276;-72
2021/12/09 15:15:28;;;;;;;12.53;9.27;;;;;;;;;;5115757;27;20639;-72
2021/12/09 15:17:57;;;;;;;14.70;9.23;;;;;;;;;;5121092;27;20311;-73
2021/12/09 15:20:32;;;;;;;15.60;9.87;;;;;;;;;;5107025;27;20696;-73
2021/12/09 15:23:08;;;;;;;17.43;11.20;;;;;;;;;;5110999;27;20193;-73